createdAt,value
2022-12-19T00:00:29.318Z,102057.16
2022-12-19T00:03:16.949Z,102050.03
2022-12-19T00:05:44.264Z,102049.22
2022-12-19T00:08:17.826Z,102052.72
2022-12-19T00:10:55.601Z,102042.00
2022-12-19T00:13:23.616Z,102045.53
2022-12-19T00:15:51.054Z,102037.16
2022-12-19T00:18:19.047Z,102046.78
2022-12-19T00:20:55.204Z,102044.75
2022-12-19T00:23:22.747Z,102034.25
2022-12-19T00:25:49.967Z,102033.31
2022-12-19T00:28:18.056Z,102041.97
2022-12-19T00:30:47.397Z,102042.00
2022-12-19T00:33:15.969Z,102033.47
2022-12-19T00:35:43.227Z,102041.28
2022-12-19T00:38:11.443Z,102037.97
2022-12-19T00:40:39.673Z,102020.47
2022-12-19T00:43:08.005Z,102024.84
2022-12-19T00:45:38.544Z,102025.59
2022-12-19T00:48:06.208Z,102022.06
2022-12-19T00:50:34.417Z,102021.88
2022-12-19T00:53:02.052Z,102021.97
2022-12-19T00:55:47.775Z,102001.91
2022-12-19T00:58:15.323Z,101995.97
2022-12-19T01:00:42.584Z,101998.50
2022-12-19T01:03:10.948Z,101990.59
2022-12-19T01:05:38.335Z,102000.25
2022-12-19T01:08:09.774Z,102002.69
2022-12-19T01:10:38.311Z,101989.59
2022-12-19T01:13:07.648Z,102002.72
2022-12-19T01:15:34.983Z,102009.00
2022-12-19T01:18:04.929Z,101988.69
2022-12-19T01:20:32.129Z,102000.13
2022-12-19T01:23:00.106Z,101976.06
2022-12-19T01:25:28.432Z,101982.19
2022-12-19T01:27:57.293Z,101983.88
2022-12-19T01:30:24.990Z,101990.59
2022-12-19T01:32:53.613Z,101980.03
2022-12-19T01:35:22.040Z,101985.31
2022-12-19T01:37:58.766Z,101967.06
2022-12-19T01:40:35.753Z,101959.03
2022-12-19T01:43:04.122Z,101965.25
2022-12-19T01:45:35.025Z,101967.25
2022-12-19T01:48:23.718Z,101962.09
2022-12-19T01:51:01.754Z,101958.66
2022-12-19T01:53:36.266Z,101950.88
2022-12-19T01:56:13.145Z,101945.78
2022-12-19T01:58:47.779Z,101941.72
2022-12-19T02:01:18.348Z,101955.22
2022-12-19T02:03:47.291Z,101950.72
2022-12-19T02:06:16.688Z,101949.19
2022-12-19T02:08:49.011Z,101951.75
2022-12-19T02:11:16.176Z,101944.19
2022-12-19T02:13:45.863Z,101942.03
2022-12-19T02:16:23.528Z,101939.34
2022-12-19T02:18:54.034Z,101938.34
2022-12-19T02:21:59.274Z,101925.38
2022-12-19T02:24:30.302Z,101923.59
2022-12-19T02:27:18.485Z,101921.03
2022-12-19T02:30:09.181Z,101929.72
2022-12-19T02:32:58.697Z,101923.00
2022-12-19T02:35:40.237Z,101914.41
2022-12-19T02:38:22.848Z,101923.13
2022-12-19T02:41:02.143Z,101914.34
2022-12-19T02:43:32.876Z,101921.41
2022-12-19T02:46:02.990Z,101910.81
2022-12-19T02:48:31.664Z,101909.75
2022-12-19T02:51:00.491Z,101899.34
2022-12-19T02:53:27.937Z,101903.63
2022-12-19T02:56:11.098Z,101902.56
2022-12-19T02:58:42.843Z,101895.66
2022-12-19T03:01:36.529Z,101878.47
2022-12-19T03:04:14.979Z,101882.56
2022-12-19T03:06:49.676Z,101865.47
2022-12-19T03:09:30.203Z,101854.84
2022-12-19T03:12:06.859Z,101858.41
2022-12-19T03:14:35.952Z,101861.97
2022-12-19T03:17:08.300Z,101856.59
2022-12-19T03:19:39.021Z,101854.09
2022-12-19T03:22:07.452Z,101863.69
2022-12-19T03:24:34.781Z,101860.19
2022-12-19T03:27:08.667Z,101855.84
2022-12-19T03:29:38.861Z,101855.63
2022-12-19T03:32:14.201Z,101853.13
2022-12-19T03:34:46.414Z,101852.13
2022-12-19T03:37:18.314Z,101851.25
2022-12-19T03:39:49.621Z,101856.44
2022-12-19T03:42:37.436Z,101844.31
2022-12-19T03:45:06.972Z,101828.66
2022-12-19T03:47:39.715Z,101839.03
2022-12-19T03:50:08.409Z,101848.75
2022-12-19T03:52:56.527Z,101835.69
2022-12-19T03:55:54.956Z,101843.38
2022-12-19T03:58:34.440Z,101854.59
2022-12-19T04:01:04.938Z,101835.50
2022-12-19T04:03:33.220Z,101847.63
2022-12-19T04:06:02.278Z,101840.66
2022-12-19T04:08:31.338Z,101838.13
2022-12-19T04:11:05.044Z,101849.38
2022-12-19T04:13:38.193Z,101848.50
2022-12-19T04:16:27.646Z,101832.88
2022-12-19T04:19:35.596Z,101843.31
2022-12-19T04:22:11.880Z,101820.69
2022-12-19T04:24:42.841Z,101841.63
2022-12-19T04:27:12.672Z,101808.53
2022-12-19T04:29:41.703Z,101824.34
2022-12-19T04:32:11.282Z,101815.59
2022-12-19T04:34:42.717Z,101810.38
2022-12-19T04:37:11.337Z,101809.50
2022-12-19T04:39:38.905Z,101818.19
2022-12-19T04:42:06.296Z,101825.13
2022-12-19T04:44:33.896Z,101818.06
2022-12-19T04:47:01.170Z,101810.28
2022-12-19T04:49:28.806Z,101817.28
2022-12-19T04:51:56.128Z,101807.78
2022-12-19T04:54:23.686Z,101815.75
2022-12-19T04:56:52.386Z,101807.91
2022-12-19T04:59:19.970Z,101800.91
2022-12-19T05:01:47.227Z,101806.97
2022-12-19T05:04:14.764Z,101804.38
2022-12-19T05:06:42.172Z,101797.44
2022-12-19T05:09:11.439Z,101788.69
2022-12-19T05:11:39.193Z,101790.25
2022-12-19T05:14:06.709Z,101780.69
2022-12-19T05:16:33.991Z,101789.47
2022-12-19T05:19:01.781Z,101789.72
2022-12-19T05:21:29.065Z,101787.69
2022-12-19T05:23:56.728Z,101797.41
2022-12-19T05:26:24.319Z,101794.75
2022-12-19T05:28:52.016Z,101788.66
2022-12-19T05:31:21.402Z,101790.44
2022-12-19T05:33:49.710Z,101781.72
2022-12-19T05:36:18.390Z,101781.66
2022-12-19T05:38:46.010Z,101783.50
2022-12-19T05:41:19.347Z,101767.06
2022-12-19T05:43:51.436Z,101768.81
2022-12-19T05:46:19.141Z,101753.22
2022-12-19T05:48:47.347Z,101767.19
2022-12-19T05:51:15.073Z,101752.25
2022-12-19T05:53:43.498Z,101749.69
2022-12-19T05:56:16.228Z,101757.69
2022-12-19T05:58:45.096Z,101767.91
2022-12-19T06:01:21.498Z,101739.25
2022-12-19T06:03:49.907Z,101745.25
2022-12-19T06:06:20.146Z,101741.78
2022-12-19T06:08:48.149Z,101720.97
2022-12-19T06:11:15.540Z,101748.78
2022-12-19T06:13:43.022Z,101734.88
2022-12-19T06:16:15.346Z,101728.03
2022-12-19T06:18:45.492Z,101717.59
2022-12-19T06:21:31.191Z,101700.97
2022-12-19T06:23:59.126Z,101714.09
2022-12-19T06:26:26.537Z,101714.78
2022-12-19T06:28:55.413Z,101719.25
2022-12-19T06:31:24.719Z,101717.63
2022-12-19T06:33:53.019Z,101700.22
2022-12-19T06:36:23.375Z,101703.63
2022-12-19T06:38:51.947Z,101685.47
2022-12-19T06:41:37.634Z,101697.72
2022-12-19T06:44:07.591Z,101702.13
2022-12-19T06:46:35.827Z,101703.72
2022-12-19T06:49:03.925Z,101692.50
2022-12-19T06:51:31.423Z,101702.97
2022-12-19T06:53:59.274Z,101714.13
2022-12-19T06:56:26.990Z,101706.41
2022-12-19T06:58:54.565Z,101708.84
2022-12-19T07:01:40.081Z,101703.75
2022-12-19T07:04:11.648Z,101674.91
2022-12-19T07:06:38.896Z,101696.78
2022-12-19T07:09:06.651Z,101707.22
2022-12-19T07:11:33.868Z,101697.78
2022-12-19T07:14:01.419Z,101697.78
2022-12-19T07:16:28.779Z,101702.19
2022-12-19T07:18:56.433Z,101689.91
2022-12-19T07:21:23.843Z,101689.94
2022-12-19T07:23:51.565Z,101687.38
2022-12-19T07:26:19.110Z,101690.81
2022-12-19T07:28:46.771Z,101684.84
2022-12-19T07:31:14.195Z,101688.34
2022-12-19T07:33:41.706Z,101667.50
2022-12-19T07:36:09.016Z,101685.75
2022-12-19T07:38:36.812Z,101682.31
2022-12-19T07:41:04.069Z,101681.38
2022-12-19T07:43:31.663Z,101692.78
2022-12-19T07:45:59.013Z,101666.69
2022-12-19T07:48:28.877Z,101656.13
2022-12-19T07:50:56.117Z,101670.22
2022-12-19T07:53:24.159Z,101669.31
2022-12-19T07:55:52.085Z,101686.81
2022-12-19T07:58:19.909Z,101660.75
2022-12-19T08:00:54.371Z,101671.13
2022-12-19T08:03:22.134Z,101665.97
2022-12-19T08:05:49.547Z,101666.84
2022-12-19T08:08:17.498Z,101660.81
2022-12-19T08:10:44.925Z,101641.63
2022-12-19T08:13:12.577Z,101662.53
2022-12-19T08:15:39.859Z,101651.22
2022-12-19T08:18:07.449Z,101648.69
2022-12-19T08:20:34.731Z,101643.50
2022-12-19T08:23:02.395Z,101643.50
2022-12-19T08:25:29.991Z,101640.03
2022-12-19T08:27:57.535Z,101640.03
2022-12-19T08:30:24.987Z,101631.41
2022-12-19T08:32:52.973Z,101631.41
2022-12-19T08:35:20.244Z,101617.44
2022-12-19T08:37:47.856Z,101607.03
2022-12-19T08:40:15.107Z,101647.09
2022-12-19T08:42:42.791Z,101601.81
2022-12-19T08:45:10.180Z,101603.56
2022-12-19T08:47:37.778Z,101610.53
2022-12-19T08:50:05.589Z,101610.53
2022-12-19T08:52:33.093Z,101596.63
2022-12-19T08:55:00.830Z,101590.50
2022-12-19T08:57:27.962Z,101580.91
2022-12-19T08:59:55.677Z,101579.16
2022-12-19T09:02:24.541Z,101555.63
2022-12-19T09:05:57.212Z,101552.00
2022-12-19T09:07:40.919Z,101541.63
2022-12-19T09:10:08.812Z,101537.28
2022-12-19T09:12:36.145Z,101516.31
2022-12-19T09:15:04.125Z,101538.09
2022-12-19T09:17:31.439Z,101536.28
2022-12-19T09:19:59.339Z,101530.91
2022-12-19T09:22:27.788Z,101531.63
2022-12-19T09:24:57.222Z,101537.59
2022-12-19T09:27:24.658Z,101525.34
2022-12-19T09:29:52.458Z,101534.06
2022-12-19T09:32:19.735Z,101506.34
2022-12-19T09:34:47.311Z,101493.34
2022-12-19T09:37:17.666Z,101498.53
2022-12-19T09:39:47.827Z,101486.56
2022-12-19T09:42:47.313Z,101488.00
2022-12-19T09:45:40.476Z,101486.25
2022-12-19T09:48:22.791Z,101483.31
2022-12-19T09:51:12.593Z,101474.25
2022-12-19T09:54:02.393Z,101467.25
2022-12-19T09:56:45.340Z,101458.06
2022-12-19T09:59:49.608Z,101459.84
2022-12-19T10:02:44.404Z,101453.50
2022-12-19T10:05:44.218Z,101444.00
2022-12-19T10:08:19.996Z,101443.88
2022-12-19T10:12:35.667Z,101435.16
2022-12-19T10:14:09.058Z,101429.09
2022-12-19T10:16:52.028Z,101421.44
2022-12-19T10:19:32.414Z,101426.03
2022-12-19T10:22:32.312Z,101412.53
2022-12-19T10:25:28.191Z,101407.91
2022-12-19T10:28:03.065Z,101401.97
2022-12-19T10:30:37.211Z,101409.13
2022-12-19T10:33:19.984Z,101399.41
2022-12-19T10:35:55.384Z,101390.47
2022-12-19T10:38:39.460Z,101388.25
2022-12-19T10:41:22.072Z,101373.44
2022-12-19T10:44:05.988Z,101393.75
2022-12-19T10:46:46.354Z,101369.50
2022-12-19T10:49:18.985Z,101362.44
2022-12-19T10:52:08.096Z,101328.72
2022-12-19T10:54:41.868Z,101339.06
2022-12-19T10:57:24.705Z,101313.00
2022-12-19T11:00:16.841Z,101324.41
2022-12-19T11:02:46.330Z,101309.28
2022-12-19T11:05:30.199Z,101287.19
2022-12-19T11:08:07.058Z,101315.84
2022-12-19T11:12:29.981Z,101299.84
2022-12-19T11:16:35.632Z,101287.19
2022-12-19T11:18:13.492Z,101292.66
2022-12-19T11:29:30.747Z,101250.13
2022-12-19T11:29:33.290Z,101284.50
2022-12-19T11:29:55.165Z,101282.69
2022-12-19T11:30:25.885Z,101264.91
2022-12-19T11:34:13.791Z,101235.50
2022-12-19T11:37:00.632Z,101241.38
2022-12-19T11:39:42.002Z,101244.78
2022-12-19T11:42:34.283Z,101242.91
2022-12-19T11:45:17.884Z,101246.13
2022-12-19T11:48:20.274Z,101255.06
2022-12-19T11:51:11.688Z,101234.06
2022-12-19T11:53:52.521Z,101216.88
2022-12-19T11:56:24.844Z,101221.16
2022-12-19T11:58:56.863Z,101220.16
2022-12-19T12:01:46.584Z,101193.75
2022-12-19T12:04:51.464Z,101206.38
2022-12-19T12:07:56.995Z,101162.03
2022-12-19T12:14:10.384Z,101150.84
2022-12-19T12:23:05.743Z,101174.25
2022-12-19T12:28:42.827Z,101169.28
2022-12-19T12:31:22.988Z,101155.16
2022-12-19T12:31:40.925Z,101149.81
2022-12-19T12:31:51.386Z,101164.84
2022-12-19T12:31:57.583Z,101150.91
2022-12-19T12:35:30.229Z,101120.97
2022-12-19T12:38:13.785Z,101117.50
2022-12-19T12:40:23.755Z,101106.22
2022-12-19T12:43:21.074Z,101109.44
2022-12-19T12:45:48.763Z,101105.53
2022-12-19T12:48:19.148Z,101098.22
2022-12-19T12:50:54.837Z,101112.31
2022-12-19T12:53:32.884Z,101102.94
2022-12-19T12:56:04.898Z,101090.84
2022-12-19T12:58:48.640Z,101088.44
2022-12-19T13:01:29.020Z,101086.31
2022-12-19T13:04:03.690Z,101070.78
2022-12-19T13:07:02.217Z,101056.81
2022-12-19T13:09:32.040Z,101061.28
2022-12-19T13:12:33.303Z,101052.97
2022-12-19T13:15:39.741Z,101061.78
2022-12-19T13:18:39.995Z,101059.38
2022-12-19T13:21:09.231Z,101068.41
2022-12-19T13:23:44.084Z,101066.69
2022-12-19T13:26:40.528Z,101052.63
2022-12-19T13:29:34.723Z,101062.84
2022-12-19T13:32:14.002Z,101055.91
2022-12-19T13:34:58.634Z,101056.41
2022-12-19T13:40:00.763Z,101045.06
2022-12-19T13:40:33.482Z,101047.72
2022-12-19T13:43:25.642Z,101038.25
2022-12-19T13:46:03.764Z,101051.28
2022-12-19T13:48:44.802Z,101034.41
2022-12-19T13:51:13.892Z,101036.59
2022-12-19T13:53:43.652Z,101038.91
2022-12-19T13:56:20.066Z,101050.88
2022-12-19T13:59:00.427Z,101033.03
2022-12-19T14:01:33.535Z,101025.91
2022-12-19T14:04:11.032Z,101032.00
2022-12-19T14:06:44.278Z,101013.72
2022-12-19T14:11:28.094Z,101013.72
2022-12-19T14:13:51.052Z,100993.13
2022-12-19T14:15:39.650Z,100994.66
2022-12-19T14:18:45.336Z,100999.97
2022-12-19T14:22:04.563Z,100987.97
2022-12-19T14:24:10.808Z,100988.78
2022-12-19T14:28:19.305Z,100977.16
2022-12-19T14:30:26.539Z,100981.47
2022-12-19T14:33:40.419Z,100993.13
2022-12-19T14:36:11.255Z,100985.91
2022-12-19T14:39:25.535Z,100990.66
2022-12-19T14:41:08.397Z,100983.91
2022-12-19T14:44:00.526Z,100991.06
2022-12-19T14:52:36.054Z,100977.38
2022-12-19T14:54:01.246Z,100969.28
2022-12-19T14:54:42.093Z,100966.16
2022-12-19T14:56:19.577Z,100964.81
2022-12-19T14:58:54.982Z,100956.19
2022-12-19T15:01:24.749Z,100958.66
2022-12-19T15:04:51.085Z,100951.22
2022-12-19T15:07:07.807Z,100960.50
2022-12-19T15:11:05.356Z,100943.38
2022-12-19T15:14:51.166Z,100955.13
2022-12-19T15:16:00.601Z,100937.09
2022-12-19T15:18:37.350Z,100946.41
2022-12-19T15:21:14.184Z,100960.59
2022-12-19T15:23:44.398Z,100931.97
2022-12-19T15:26:15.727Z,100941.41
2022-12-19T15:28:48.059Z,100928.81
2022-12-19T15:31:24.498Z,100926.53
2022-12-19T15:34:33.599Z,100909.38
2022-12-19T15:36:39.732Z,100907.16
2022-12-19T15:39:06.972Z,100915.84
2022-12-19T15:41:34.818Z,100912.31
2022-12-19T15:44:09.888Z,100921.25
2022-12-19T15:46:41.325Z,100909.69
2022-12-19T15:49:16.318Z,100906.59
2022-12-19T15:51:44.174Z,100917.47
2022-12-19T15:56:59.170Z,100919.66
2022-12-19T15:59:37.739Z,100916.59
2022-12-19T16:02:19.492Z,100915.13
2022-12-19T16:04:48.333Z,100915.03
2022-12-19T16:07:23.893Z,100903.19
2022-12-19T16:09:52.336Z,100889.91
2022-12-19T16:12:24.905Z,100905.56
2022-12-19T16:15:00.786Z,100887.66
2022-12-19T16:17:32.024Z,100900.16
2022-12-19T16:19:59.467Z,100895.59
2022-12-19T16:22:29.233Z,100896.97
2022-12-19T16:24:57.393Z,100888.59
2022-12-19T16:27:31.097Z,100895.06
2022-12-19T16:30:19.263Z,100888.34
2022-12-19T16:32:47.669Z,100874.22
2022-12-19T16:35:34.182Z,100883.75
2022-12-19T16:38:05.728Z,100865.63
2022-12-19T16:40:33.227Z,100868.69
2022-12-19T16:43:06.315Z,100859.59
2022-12-19T16:45:34.609Z,100865.84
2022-12-19T16:48:02.193Z,100863.09
2022-12-19T16:50:31.521Z,100857.59
2022-12-19T16:52:59.159Z,100859.78
2022-12-19T16:55:26.499Z,100852.16
2022-12-19T16:57:56.300Z,100846.97
2022-12-19T17:00:24.609Z,100827.09
2022-12-19T17:02:58.873Z,100836.38
2022-12-19T17:05:29.843Z,100837.38
2022-12-19T17:07:58.002Z,100830.56
2022-12-19T17:10:33.810Z,100837.91
2022-12-19T17:13:03.348Z,100842.53
2022-12-19T17:15:35.384Z,100838.03
2022-12-19T17:18:10.853Z,100832.59
2022-12-19T17:20:42.026Z,100838.28
2022-12-19T17:23:22.376Z,100825.03
2022-12-19T17:25:50.522Z,100804.31
2022-12-19T17:28:18.294Z,100809.63
2022-12-19T17:30:51.040Z,100793.88
2022-12-19T17:33:20.459Z,100790.25
2022-12-19T17:35:48.771Z,100796.34
2022-12-19T17:38:17.842Z,100791.03
2022-12-19T17:40:45.205Z,100779.84
2022-12-19T17:43:13.655Z,100767.31
2022-12-19T17:45:41.525Z,100764.88
2022-12-19T17:48:38.119Z,100774.47
2022-12-19T17:51:05.619Z,100758.22
2022-12-19T17:53:33.105Z,100767.75
2022-12-19T17:56:00.337Z,100752.44
2022-12-19T17:58:27.928Z,100747.44
2022-12-19T18:00:56.430Z,100748.63
2022-12-19T18:03:26.081Z,100739.50
2022-12-19T18:05:54.879Z,100726.22
2022-12-19T18:08:26.298Z,100742.00
2022-12-19T18:10:56.576Z,100718.16
2022-12-19T18:13:25.081Z,100739.31
2022-12-19T18:15:55.769Z,100725.66
2022-12-19T18:18:33.659Z,100727.06
2022-12-19T18:21:01.984Z,100718.56
2022-12-19T18:23:32.803Z,100705.16
2022-12-19T18:26:02.457Z,100697.41
2022-12-19T18:28:30.706Z,100696.34
2022-12-19T18:31:06.717Z,100697.44
2022-12-19T18:33:39.723Z,100692.63
2022-12-19T18:36:07.930Z,100694.66
2022-12-19T18:38:35.453Z,100676.84
2022-12-19T18:41:02.825Z,100671.72
2022-12-19T18:43:31.273Z,100675.47
2022-12-19T18:45:58.673Z,100667.63
2022-12-19T18:48:28.625Z,100662.63
2022-12-19T18:50:57.061Z,100651.84
2022-12-19T18:53:32.788Z,100654.38
2022-12-19T18:56:03.241Z,100653.97
2022-12-19T18:58:31.118Z,100651.75
2022-12-19T19:01:00.597Z,100627.91
2022-12-19T19:03:31.976Z,100632.72
2022-12-19T19:05:59.745Z,100624.97
2022-12-19T19:08:30.562Z,100607.31
2022-12-19T19:11:23.557Z,100618.16
2022-12-19T19:13:52.450Z,100616.72
2022-12-19T19:16:27.449Z,100616.72
2022-12-19T19:18:57.362Z,100588.56
2022-12-19T19:21:28.795Z,100588.03
2022-12-19T19:24:15.335Z,100587.06
2022-12-19T19:26:42.942Z,100578.69
2022-12-19T19:29:10.765Z,100592.75
2022-12-19T19:31:41.017Z,100581.84
2022-12-19T19:34:14.574Z,100590.41
2022-12-19T19:36:47.243Z,100581.41
2022-12-19T19:39:15.426Z,100586.53
2022-12-19T19:41:42.650Z,100582.69
2022-12-19T19:44:10.258Z,100579.28
2022-12-19T19:46:37.656Z,100574.31
2022-12-19T19:49:05.273Z,100574.88
2022-12-19T19:51:32.541Z,100566.03
2022-12-19T19:54:00.129Z,100569.38
2022-12-19T19:56:27.505Z,100570.03
2022-12-19T19:58:55.386Z,100568.94
2022-12-19T20:01:22.840Z,100561.84
2022-12-19T20:03:50.608Z,100562.63
2022-12-19T20:06:19.281Z,100546.47
2022-12-19T20:08:46.993Z,100553.56
2022-12-19T20:11:14.374Z,100548.06
2022-12-19T20:13:41.962Z,100546.84
2022-12-19T20:16:15.922Z,100541.91
2022-12-19T20:18:51.201Z,100544.50
2022-12-19T20:21:20.045Z,100537.22
2022-12-19T20:23:48.166Z,100535.28
2022-12-19T20:26:16.765Z,100527.31
2022-12-19T20:28:49.519Z,100526.31
2022-12-19T20:31:23.164Z,100528.09
2022-12-19T20:33:53.238Z,100517.28
2022-12-19T20:36:21.800Z,100500.75
2022-12-19T20:38:49.509Z,100503.13
2022-12-19T20:41:17.963Z,100496.88
2022-12-19T20:43:45.814Z,100501.13
2022-12-19T20:46:16.551Z,100493.69
2022-12-19T20:48:45.253Z,100497.88
2022-12-19T20:51:14.223Z,100485.16
2022-12-19T20:53:42.956Z,100479.75
2022-12-19T20:56:14.702Z,100478.97
2022-12-19T20:58:42.499Z,100473.25
2022-12-19T21:01:13.876Z,100474.41
2022-12-19T21:03:42.660Z,100479.56
2022-12-19T21:06:12.271Z,100468.84
2022-12-19T21:08:40.573Z,100459.03
2022-12-19T21:11:08.972Z,100460.38
2022-12-19T21:13:37.355Z,100457.75
2022-12-19T21:16:10.025Z,100448.88
2022-12-19T21:18:40.111Z,100459.50
2022-12-19T21:21:09.464Z,100450.84
2022-12-19T21:23:37.104Z,100448.97
2022-12-19T21:26:04.850Z,100434.75
2022-12-19T21:28:33.361Z,100449.13
2022-12-19T21:31:07.142Z,100452.16
2022-12-19T21:33:34.917Z,100430.25
2022-12-19T21:36:07.453Z,100438.63
2022-12-19T21:38:35.349Z,100418.31
2022-12-19T21:41:04.845Z,100418.97
2022-12-19T21:43:33.692Z,100415.81
2022-12-19T21:46:06.146Z,100411.06
2022-12-19T21:48:42.343Z,100408.31
2022-12-19T21:51:11.287Z,100403.75
2022-12-19T21:53:39.601Z,100400.41
2022-12-19T21:56:28.749Z,100395.59
2022-12-19T21:58:58.890Z,100400.59
2022-12-19T22:01:26.812Z,100393.72
2022-12-19T22:04:10.306Z,100398.00
2022-12-19T22:06:39.092Z,100380.78
2022-12-19T22:09:12.064Z,100374.59
2022-12-19T22:11:39.428Z,100386.97
2022-12-19T22:14:07.864Z,100375.69
2022-12-19T22:16:35.480Z,100375.38
2022-12-19T22:19:04.014Z,100357.53
2022-12-19T22:21:31.978Z,100354.63
2022-12-19T22:24:01.522Z,100362.63
2022-12-19T22:26:30.186Z,100357.31
2022-12-19T22:28:58.601Z,100352.03
2022-12-19T22:31:31.314Z,100347.59
2022-12-19T22:34:10.859Z,100345.06
2022-12-19T22:36:39.561Z,100341.56
2022-12-19T22:39:10.179Z,100329.13
2022-12-19T22:41:38.897Z,100323.38
2022-12-19T22:44:07.387Z,100323.22
2022-12-19T22:46:36.908Z,100320.53
2022-12-19T22:49:06.998Z,100320.44
2022-12-19T22:51:35.879Z,100335.13
2022-12-19T22:54:04.624Z,100320.75
2022-12-19T22:56:34.026Z,100333.50
2022-12-19T22:59:06.899Z,100313.53
2022-12-19T23:01:37.734Z,100324.69
2022-12-19T23:04:07.797Z,100301.09
2022-12-19T23:06:37.492Z,100315.72
2022-12-19T23:09:07.838Z,100314.69
2022-12-19T23:11:40.623Z,100297.59
2022-12-19T23:14:11.606Z,100304.84
2022-12-19T23:16:39.007Z,100298.13
2022-12-19T23:19:06.694Z,100293.78
2022-12-19T23:21:34.047Z,100298.06
2022-12-19T23:24:01.644Z,100290.66
2022-12-19T23:26:34.901Z,100284.59
2022-12-19T23:29:06.040Z,100289.13
2022-12-19T23:31:33.689Z,100291.03
2022-12-19T23:34:02.254Z,100286.94
2022-12-19T23:37:09.054Z,100282.50
2022-12-19T23:39:17.283Z,100288.97
2022-12-19T23:41:44.524Z,100278.34
2022-12-19T23:44:12.328Z,100278.97
2022-12-19T23:46:40.299Z,100268.91
2022-12-19T23:49:08.064Z,100266.91
2022-12-19T23:51:35.277Z,100276.91
2022-12-19T23:54:02.935Z,100273.22
2022-12-19T23:56:32.285Z,100258.88
2022-12-19T23:59:00.581Z,100255.44
